Time;durP1;ratioP1;P1;durP2;ratioP2;P2;SDS_P1;SDS_P2;PMS_P1;PMS_P2;Temp;Humidity;BMP_temperature;BMP_pressure;BME280_temperature;BME280_humidity;BME280_pressure;Samples;Min_cycle;Max_cycle;Signal;HPM_P1;HPM_P2
2022/06/07 00:00:24;;;;;;;1.65;0.90;;;;;;;21.11;61.09;99768.22;4358460;32;32259;-86
2022/06/07 00:02:52;;;;;;;2.22;0.90;;;;;;;21.04;61.14;99768.91;4360624;32;32785;-86
2022/06/07 00:05:20;;;;;;;1.20;1.05;;;;;;;20.99;61.32;99769.31;4356177;32;34214;-86
2022/06/07 00:07:47;;;;;;;1.37;1.00;;;;;;;21.09;60.88;99770.19;4354615;32;34068;-86
2022/06/07 00:10:15;;;;;;;1.42;1.10;;;;;;;21.00;61.07;99776.38;4360577;32;31647;-86
2022/06/07 00:12:43;;;;;;;1.45;0.93;;;;;;;21.00;60.95;99771.00;4353716;32;33194;-86
2022/06/07 00:15:11;;;;;;;1.25;1.15;;;;;;;20.98;61.08;99767.59;4345739;32;34254;-86
2022/06/07 00:17:38;;;;;;;1.35;1.00;;;;;;;21.02;60.91;99765.50;4356367;32;33461;-86
2022/06/07 00:20:08;;;;;;;1.92;1.10;;;;;;;20.86;61.35;99768.66;4361771;32;32490;-86
2022/06/07 00:22:36;;;;;;;1.12;0.90;;;;;;;20.65;62.29;99772.25;4368554;32;33617;-85
2022/06/07 00:25:06;;;;;;;2.83;1.30;;;;;;;20.65;62.36;99764.19;4359850;32;33545;-86
2022/06/07 00:27:34;;;;;;;1.65;1.00;;;;;;;20.78;61.83;99763.97;4339917;32;32808;-86
2022/06/07 00:30:03;;;;;;;1.37;1.20;;;;;;;20.82;61.56;99764.53;4346039;32;33177;-86
2022/06/07 00:32:33;;;;;;;0.85;0.85;;;;;;;20.80;61.50;99766.53;4359812;32;32882;-85
2022/06/07 00:35:02;;;;;;;1.70;0.95;;;;;;;20.74;61.55;99759.84;4365251;32;33935;-85
2022/06/07 00:37:29;;;;;;;1.23;1.02;;;;;;;20.60;62.24;99760.19;4354919;32;33563;-86
2022/06/07 00:39:57;;;;;;;1.00;0.90;;;;;;;20.69;61.89;99760.22;4353586;32;32807;-86
2022/06/07 00:42:25;;;;;;;1.50;1.17;;;;;;;20.64;61.85;99756.25;4349338;32;34444;-87
2022/06/07 00:44:54;;;;;;;1.70;1.30;;;;;;;20.55;61.91;99760.56;4359236;32;32950;-86
2022/06/07 00:47:25;;;;;;;1.35;1.10;;;;;;;20.53;62.07;99767.06;4364803;32;32671;-86
2022/06/07 00:50:01;;;;;;;2.25;1.75;;;;;;;20.46;62.39;99758.63;4346275;32;32428;-86
2022/06/07 00:52:31;;;;;;;1.77;1.10;;;;;;;20.51;62.33;99755.59;4365378;32;34565;-86
2022/06/07 00:58:25;;;;;;;2.55;1.20;;;;;;;20.40;62.45;99761.84;4371412;32;34440;-87
2022/06/07 01:00:54;;;;;;;2.30;1.85;;;;;;;20.13;63.09;99760.53;4364836;32;32050;-88
2022/06/07 01:03:22;;;;;;;2.90;1.10;;;;;;;20.12;63.40;99757.97;4374242;32;33782;-88
2022/06/07 01:05:52;;;;;;;1.95;1.37;;;;;;;20.19;63.08;99760.03;4363783;32;32644;-88
2022/06/07 01:11:10;;;;;;;2.00;1.52;;;;;;;20.27;62.84;99740.63;4337217;32;32106;-89
2022/06/07 01:13:38;;;;;;;1.80;1.20;;;;;;;20.34;62.70;99747.16;4364194;32;34197;-88
2022/06/07 01:16:08;;;;;;;3.40;1.98;;;;;;;20.30;62.78;99755.56;4339416;32;32688;-88
2022/06/07 01:18:36;;;;;;;2.42;1.37;;;;;;;20.23;62.95;99749.03;4351367;32;34287;-89
2022/06/07 01:21:20;;;;;;;1.62;1.05;;;;;;;20.10;63.40;99744.72;4352044;32;32374;-89
2022/06/07 01:23:48;;;;;;;1.90;1.20;;;;;;;20.14;63.20;99750.66;4374529;32;33057;-88
2022/06/07 01:26:18;;;;;;;2.30;1.05;;;;;;;20.25;62.73;99741.72;4366758;32;34877;-88
2022/06/07 01:28:48;;;;;;;1.40;1.17;;;;;;;20.17;62.84;99735.16;4372985;32;33886;-86
2022/06/07 01:31:16;;;;;;;1.33;0.98;;;;;;;19.99;63.43;99742.09;4367130;32;34303;-85
2022/06/07 01:33:44;;;;;;;1.42;1.17;;;;;;;19.95;63.62;99735.28;4355194;32;34685;-85
2022/06/07 01:36:15;;;;;;;2.03;1.37;;;;;;;19.93;63.68;99737.22;4358446;32;32782;-84
2022/06/07 01:38:45;;;;;;;1.30;1.03;;;;;;;19.97;63.50;99736.00;4342501;32;34565;-84
2022/06/07 01:44:31;;;;;;;1.45;1.30;;;;;;;19.94;63.71;99733.59;4322325;33;33520;-86
2022/06/07 01:47:00;;;;;;;1.65;1.23;;;;;;;19.88;64.02;99736.75;4330330;33;33699;-86
2022/06/07 01:49:28;;;;;;;1.20;1.10;;;;;;;20.03;63.42;99738.16;4347742;32;33995;-86
2022/06/07 01:51:58;;;;;;;2.28;1.50;;;;;;;19.93;63.55;99731.84;4353939;32;33581;-86
2022/06/07 01:54:28;;;;;;;2.28;1.20;;;;;;;19.95;63.46;99727.25;4358345;32;33804;-85
2022/06/07 01:56:56;;;;;;;2.70;1.40;;;;;;;20.01;63.20;99729.41;4354806;32;34342;-86
2022/06/07 01:59:24;;;;;;;1.87;1.10;;;;;;;20.01;63.19;99733.91;4356924;32;34181;-84
2022/06/07 02:01:51;;;;;;;1.25;1.12;;;;;;;19.84;63.66;99727.28;4357138;32;32213;-84
2022/06/07 02:04:22;;;;;;;2.08;1.30;;;;;;;19.88;63.49;99728.72;4357547;32;33652;-84
2022/06/07 02:06:50;;;;;;;2.58;1.55;;;;;;;19.93;63.27;99715.78;4341611;32;33764;-84
2022/06/07 02:09:21;;;;;;;1.37;1.00;;;;;;;19.98;63.10;99716.25;4355098;32;34186;-84
2022/06/07 02:11:50;;;;;;;1.08;0.98;;;;;;;20.10;62.67;99717.06;4344688;32;33490;-88
2022/06/07 02:14:18;;;;;;;0.82;0.80;;;;;;;19.97;63.10;99711.87;4360626;32;33412;-89
2022/06/07 02:16:46;;;;;;;1.70;1.23;;;;;;;19.97;63.19;99708.34;4348732;32;32610;-89
2022/06/07 02:19:15;;;;;;;3.08;1.10;;;;;;;19.92;63.14;99706.91;4349966;32;34205;-89
2022/06/07 02:21:44;;;;;;;1.77;1.02;;;;;;;19.92;63.02;99704.22;4360296;32;32829;-88
2022/06/07 02:24:13;;;;;;;1.45;1.15;;;;;;;19.88;63.23;99707.28;4360322;32;32111;-89
2022/06/07 02:27:03;;;;;;;1.55;1.30;;;;;;;19.87;63.08;99705.59;4351359;32;32613;-89
2022/06/07 02:29:44;;;;;;;2.72;1.40;;;;;;;19.93;62.59;99695.19;4345329;32;33862;-88
2022/06/07 02:32:14;;;;;;;1.60;1.00;;;;;;;19.71;63.01;99697.16;4354354;32;34396;-88
2022/06/07 02:34:45;;;;;;;1.23;1.10;;;;;;;19.66;63.16;99694.84;4352732;32;34411;-88
2022/06/07 02:37:14;;;;;;;1.25;0.95;;;;;;;19.71;63.02;99700.66;4360383;32;33736;-88
2022/06/07 02:39:43;;;;;;;4.90;1.25;;;;;;;19.72;63.03;99696.16;4351676;32;33876;-88
2022/06/07 02:42:13;;;;;;;1.58;1.35;;;;;;;19.66;63.08;99695.69;4340170;32;32623;-88
2022/06/07 02:44:41;;;;;;;1.67;1.05;;;;;;;19.67;63.12;99697.38;4354515;32;33777;-87
2022/06/07 02:47:11;;;;;;;2.03;1.20;;;;;;;19.65;63.20;99696.69;4344097;32;32846;-88
2022/06/07 02:49:39;;;;;;;2.08;1.25;;;;;;;19.57;63.60;99699.09;4357696;32;33628;-86
2022/06/07 02:52:08;;;;;;;1.30;1.20;;;;;;;19.58;63.71;99699.94;4359557;32;32159;-87
2022/06/07 02:54:37;;;;;;;2.22;1.60;;;;;;;19.63;63.46;99698.63;4355957;32;32601;-87
2022/06/07 02:57:06;;;;;;;1.45;1.33;;;;;;;19.53;63.71;99697.66;4343187;32;34000;-87
2022/06/07 02:59:36;;;;;;;5.82;1.40;;;;;;;19.54;63.69;99699.34;4356589;32;34374;-87
2022/06/07 03:02:05;;;;;;;1.60;1.50;;;;;;;19.54;63.61;99699.34;4361896;32;33049;-87
2022/06/07 03:04:33;;;;;;;1.50;1.25;;;;;;;19.49;63.82;99700.69;4338991;33;32607;-87
2022/06/07 03:07:04;;;;;;;1.73;1.02;;;;;;;19.34;64.62;99708.16;4350248;32;34356;-86
2022/06/07 03:09:33;;;;;;;2.92;1.17;;;;;;;19.38;64.63;99696.22;4351465;32;33356;-87
2022/06/07 03:12:02;;;;;;;2.60;1.12;;;;;;;19.41;64.40;99696.81;4355764;32;34373;-87
2022/06/07 03:14:30;;;;;;;2.00;1.33;;;;;;;19.43;64.15;99699.38;4352331;32;33511;-85
2022/06/07 03:17:00;;;;;;;1.83;1.73;;;;;;;19.51;63.96;99699.56;4362342;32;33696;-85
2022/06/07 03:19:29;;;;;;;3.28;1.42;;;;;;;19.59;63.68;99697.13;4351647;32;34715;-85
2022/06/07 03:21:57;;;;;;;3.47;1.40;;;;;;;19.56;63.74;99697.41;4350240;32;32979;-86
2022/06/07 03:24:26;;;;;;;1.15;0.95;;;;;;;19.53;63.87;99699.47;4359267;32;34194;-88
2022/06/07 03:26:55;;;;;;;2.97;1.42;;;;;;;19.49;64.12;99696.19;4322671;32;32559;-90
2022/06/07 03:29:26;;;;;;;2.55;1.27;;;;;;;19.58;64.28;99700.78;4340334;32;33207;-90
2022/06/07 03:31:56;;;;;;;1.20;1.10;;;;;;;19.68;63.97;99704.44;4353628;32;32867;-89
2022/06/07 03:34:24;;;;;;;5.15;1.30;;;;;;;19.63;64.26;99703.97;4351454;32;33679;-90
2022/06/07 03:36:53;;;;;;;2.00;1.67;;;;;;;19.67;64.59;99700.06;4357915;32;33411;-90
2022/06/07 03:39:24;;;;;;;1.33;1.23;;;;;;;19.72;64.84;99697.00;4328222;32;32973;-90
2022/06/07 03:41:52;;;;;;;2.72;1.37;;;;;;;19.54;66.17;99699.34;4356403;32;32064;-91
2022/06/07 03:44:21;;;;;;;1.37;1.23;;;;;;;19.64;66.17;99699.47;4361477;32;33897;-90
2022/06/07 03:46:49;;;;;;;2.03;1.77;;;;;;;19.78;65.78;99693.81;4350175;32;32971;-91
2022/06/07 03:49:18;;;;;;;5.72;2.17;;;;;;;19.92;65.73;99703.37;4366408;32;33859;-90
2022/06/07 03:51:48;;;;;;;2.22;1.98;;;;;;;20.19;64.56;99698.34;4377061;32;32515;-90
2022/06/07 03:54:16;;;;;;;3.33;1.62;;;;;;;20.38;63.79;99694.09;4384782;32;34116;-90
2022/06/07 03:56:47;;;;;;;1.87;1.40;;;;;;;20.49;63.57;99696.72;4357592;32;32616;-91
2022/06/07 03:59:16;;;;;;;3.58;1.50;;;;;;;20.65;63.01;99691.75;4371503;32;33537;-86
2022/06/07 04:01:44;;;;;;;1.00;0.90;;;;;;;20.87;63.08;99687.16;4348352;32;33695;-87
2022/06/07 04:04:14;;;;;;;2.17;1.37;;;;;;;20.97;63.00;99691.56;4370572;32;33019;-87
2022/06/07 04:09:42;;;;;;;2.08;1.33;;;;;;;21.30;62.84;99686.03;4369378;32;33515;-86
2022/06/07 04:12:14;;;;;;;2.10;1.52;;;;;;;21.39;62.60;99671.78;4366050;32;33678;-86
2022/06/07 04:14:47;;;;;;;1.50;1.40;;;;;;;21.58;62.21;99668.28;4364567;32;33623;-86
2022/06/07 04:17:15;;;;;;;2.60;1.50;;;;;;;21.69;62.16;99666.28;4363805;32;33608;-88
2022/06/07 04:19:44;;;;;;;4.57;1.20;;;;;;;21.97;61.64;99669.97;4366449;32;33321;-88
2022/06/07 04:22:13;;;;;;;2.42;1.42;;;;;;;22.06;61.41;99656.66;4337850;32;33114;-88
2022/06/07 04:24:41;;;;;;;1.95;1.20;;;;;;;22.40;60.42;99659.72;4345623;32;33332;-85
2022/06/07 04:27:10;;;;;;;1.87;1.15;;;;;;;22.61;59.90;99652.31;4369177;32;33259;-85
2022/06/07 04:29:38;;;;;;;1.50;1.20;;;;;;;22.58;60.55;99657.97;4361452;32;95769;-85
2022/06/07 04:32:12;;;;;;;3.17;1.48;;;;;;;22.59;60.51;99656.97;4363219;32;32604;-85
2022/06/07 04:34:42;;;;;;;1.40;1.30;;;;;;;22.90;59.43;99643.28;4366688;32;33973;-85
2022/06/07 04:37:12;;;;;;;3.90;1.05;;;;;;;22.94;60.07;99645.53;4368634;32;33733;-85
2022/06/07 04:39:42;;;;;;;5.35;1.55;;;;;;;23.14;58.99;99648.94;4365691;32;33784;-85
2022/06/07 04:42:11;;;;;;;2.10;1.58;;;;;;;23.12;59.26;99636.63;4370822;32;32570;-86
2022/06/07 04:44:40;;;;;;;2.03;1.40;;;;;;;23.28;58.69;99641.34;4361541;32;34169;-86
2022/06/07 04:47:09;;;;;;;3.28;0.95;;;;;;;23.35;58.34;99650.50;4341421;32;33754;-87
2022/06/07 04:49:38;;;;;;;3.37;1.33;;;;;;;23.55;57.79;99644.00;4363106;32;34896;-86
2022/06/07 04:52:18;;;;;;;2.80;1.17;;;;;;;23.69;56.61;99653.41;4371391;32;33628;-87
2022/06/07 04:54:49;;;;;;;2.80;1.17;;;;;;;24.01;56.25;99642.03;4355210;32;32955;-87
2022/06/07 04:57:22;;;;;;;;;;;;;;;24.17;56.17;99650.28;4357985;32;33041;-86
2022/06/07 04:59:51;;;;;;;1.37;1.27;;;;;;;24.51;55.09;99654.91;4371625;32;34293;-86
2022/06/07 05:02:22;;;;;;;4.72;1.27;;;;;;;24.22;55.45;99650.66;4360328;32;32061;-87
2022/06/07 05:04:52;;;;;;;1.35;1.05;;;;;;;24.47;54.89;99648.97;4348626;32;33702;-87
2022/06/07 05:07:21;;;;;;;1.85;0.80;;;;;;;24.63;54.83;99648.22;4348299;32;33610;-87
2022/06/07 05:09:52;;;;;;;1.12;1.00;;;;;;;24.62;53.69;99643.81;4364614;32;32823;-87
2022/06/07 05:12:21;;;;;;;2.72;0.90;;;;;;;24.80;52.36;99642.91;4361293;32;32614;-87
2022/06/07 05:14:50;;;;;;;1.58;1.48;;;;;;;24.96;52.85;99649.19;4359444;32;33638;-87
2022/06/07 05:17:18;;;;;;;2.33;0.80;;;;;;;24.95;53.94;99657.47;4358659;32;34338;-87
2022/06/07 05:19:47;;;;;;;1.48;0.98;;;;;;;25.15;52.80;99652.69;4357202;32;33409;-88
2022/06/07 05:22:16;;;;;;;1.65;0.95;;;;;;;25.25;51.37;99643.41;4369679;32;32128;-89
2022/06/07 05:24:45;;;;;;;2.60;0.95;;;;;;;25.24;52.33;99647.12;4346618;32;32493;-89
2022/06/07 05:27:18;;;;;;;0.93;0.55;;;;;;;25.18;51.86;99655.91;4343333;32;32548;-89
2022/06/07 05:29:52;;;;;;;1.00;0.80;;;;;;;25.19;51.78;99652.19;4365576;32;34289;-88
2022/06/07 05:32:21;;;;;;;3.12;1.20;;;;;;;25.49;50.60;99652.59;4346864;32;32154;-89
2022/06/07 05:34:51;;;;;;;1.15;0.85;;;;;;;25.56;51.72;99650.91;4341640;32;33546;-88
2022/06/07 05:37:21;;;;;;;1.08;0.85;;;;;;;25.66;49.58;99654.31;4338796;32;33447;-88
2022/06/07 05:39:51;;;;;;;3.83;1.20;;;;;;;25.59;50.31;99661.41;4360362;32;34620;-85
2022/06/07 05:42:19;;;;;;;1.10;0.80;;;;;;;25.59;50.85;99655.12;4356254;32;33050;-86
2022/06/07 05:44:47;;;;;;;2.95;1.42;;;;;;;25.73;51.04;99658.03;4372164;32;35716;-86
2022/06/07 05:47:17;;;;;;;1.05;1.05;;;;;;;25.91;50.07;99665.16;4365609;32;33297;-86
2022/06/07 05:49:45;;;;;;;1.23;1.08;;;;;;;26.13;48.86;99659.09;4340868;32;33407;-86
2022/06/07 05:52:19;;;;;;;1.20;0.75;;;;;;;26.32;47.86;99652.47;4369332;32;33656;-85
2022/06/07 05:54:49;;;;;;;1.52;1.08;;;;;;;26.08;48.78;99661.44;4353510;32;33371;-86
2022/06/07 05:57:18;;;;;;;5.47;0.90;;;;;;;26.29;49.82;99652.78;4361103;32;33666;-86
2022/06/07 05:59:48;;;;;;;1.33;1.05;;;;;;;26.51;48.59;99648.56;4366234;32;33225;-85
2022/06/07 06:02:16;;;;;;;2.50;0.90;;;;;;;26.76;47.68;99644.75;4367010;32;33595;-86
2022/06/07 06:04:47;;;;;;;1.02;0.93;;;;;;;26.71;48.57;99654.41;4371865;32;33918;-86
2022/06/07 06:07:18;;;;;;;1.52;1.25;;;;;;;26.90;47.70;99647.75;4366187;32;33283;-86
2022/06/07 06:12:37;;;;;;;0.90;0.90;;;;;;;26.92;46.56;99642.97;4357750;32;32991;-85
2022/06/07 06:15:07;;;;;;;1.73;1.20;;;;;;;26.83;46.72;99649.47;4349402;32;33280;-86
2022/06/07 06:17:35;;;;;;;1.02;0.93;;;;;;;27.00;48.10;99643.78;4373151;32;33822;-86
2022/06/07 06:20:04;;;;;;;1.12;1.02;;;;;;;27.15;46.82;99648.50;4372295;32;33418;-86
2022/06/07 06:22:35;;;;;;;1.27;0.90;;;;;;;27.48;45.44;99641.00;4360056;32;33416;-86
2022/06/07 06:25:05;;;;;;;1.95;1.27;;;;;;;27.29;45.77;99640.44;4357913;32;33884;-85
2022/06/07 06:27:39;;;;;;;1.30;1.20;;;;;;;27.57;46.96;99645.38;4336893;32;32730;-85
2022/06/07 06:30:10;;;;;;;1.40;0.90;;;;;;;27.37;45.01;99638.72;4358439;32;33941;-85
2022/06/07 06:32:43;;;;;;;4.00;0.90;;;;;;;27.48;45.23;99632.88;4354604;32;34167;-86
2022/06/07 06:35:13;;;;;;;1.58;0.80;;;;;;;27.40;45.19;99638.38;4370442;32;33632;-85
2022/06/07 06:37:43;;;;;;;1.40;1.15;;;;;;;27.75;44.23;99631.53;4362907;32;34067;-85
2022/06/07 06:40:12;;;;;;;1.10;0.73;;;;;;;27.69;43.76;99624.94;4347276;32;34505;-86
2022/06/07 06:42:41;;;;;;;1.17;1.08;;;;;;;27.82;43.15;99624.34;4369631;32;33899;-85
2022/06/07 06:45:11;;;;;;;0.98;0.90;;;;;;;28.23;43.23;99623.97;4355089;32;34441;-85
2022/06/07 06:47:40;;;;;;;1.27;1.17;;;;;;;28.21;42.83;99624.16;4352873;32;33795;-85
2022/06/07 06:50:11;;;;;;;1.10;1.00;;;;;;;27.75;43.47;99626.94;4367292;32;34189;-85
2022/06/07 06:52:42;;;;;;;2.33;1.10;;;;;;;28.32;41.17;99620.16;4361898;32;33514;-86
2022/06/07 06:55:11;;;;;;;1.25;1.02;;;;;;;28.57;43.83;99620.75;4368188;32;33789;-85
2022/06/07 06:57:41;;;;;;;1.10;1.00;;;;;;;28.58;42.28;99620.59;4364764;32;35712;-85
2022/06/07 07:00:09;;;;;;;2.35;1.08;;;;;;;28.51;42.06;99613.34;4369549;32;33387;-85
2022/06/07 07:02:38;;;;;;;1.30;1.20;;;;;;;28.42;41.86;99615.31;4360326;32;33821;-86
2022/06/07 07:05:11;;;;;;;0.90;0.70;;;;;;;28.71;41.52;99617.19;4373371;32;34091;-86
2022/06/07 07:07:43;;;;;;;1.02;1.00;;;;;;;28.74;41.39;99614.09;4347897;32;33898;-85
2022/06/07 07:10:15;;;;;;;2.95;1.25;;;;;;;28.95;41.55;99617.94;4360045;32;34999;-85
2022/06/07 07:12:44;;;;;;;1.20;1.00;;;;;;;29.24;39.90;99609.69;4361757;32;32470;-86
2022/06/07 07:15:13;;;;;;;1.42;0.80;;;;;;;29.13;39.22;99612.94;4366631;32;32474;-86
2022/06/07 07:17:42;;;;;;;1.25;1.15;;;;;;;28.97;39.47;99608.56;4369957;32;33993;-86
2022/06/07 07:20:11;;;;;;;2.80;1.08;;;;;;;28.87;39.84;99607.16;4366914;32;33835;-86
2022/06/07 07:22:40;;;;;;;1.50;1.10;;;;;;;29.09;40.29;99619.78;4372308;32;32385;-86
2022/06/07 07:25:10;;;;;;;1.33;0.90;;;;;;;29.11;40.97;99606.84;4353438;32;33940;-85
2022/06/07 07:27:41;;;;;;;1.00;1.00;;;;;;;29.17;39.67;99603.38;4353324;32;32351;-86
2022/06/07 07:30:14;;;;;;;0.77;0.77;;;;;;;28.81;40.17;99603.31;4354820;32;33837;-85
2022/06/07 07:32:43;;;;;;;1.20;1.00;;;;;;;28.68;40.04;99593.12;4373077;32;33672;-86
2022/06/07 07:35:24;;;;;;;4.32;1.00;;;;;;;29.14;40.74;99600.19;4355907;32;32474;-86
2022/06/07 07:37:53;;;;;;;10.82;1.27;;;;;;;29.09;38.70;99595.31;4365033;32;34784;-86
2022/06/07 07:40:22;;;;;;;1.67;1.15;;;;;;;29.36;38.59;99595.63;4361231;32;33211;-86
2022/06/07 07:42:51;;;;;;;2.78;1.02;;;;;;;29.73;38.88;99592.66;4366511;32;33395;-87
2022/06/07 07:45:20;;;;;;;1.27;0.90;;;;;;;28.95;40.82;99588.87;4372796;32;33919;-86
2022/06/07 07:47:52;;;;;;;4.15;1.10;;;;;;;28.76;39.15;99598.44;4367057;32;33203;-87
2022/06/07 07:50:21;;;;;;;1.05;0.95;;;;;;;29.17;38.51;99597.94;4366270;32;34291;-86
2022/06/07 07:52:51;;;;;;;1.90;0.98;;;;;;;29.56;38.39;99602.13;4363016;32;33164;-86
2022/06/07 07:55:24;;;;;;;1.10;0.85;;;;;;;29.29;38.92;99600.97;4367460;32;33241;-86
2022/06/07 07:57:53;;;;;;;1.55;0.70;;;;;;;29.33;36.76;99597.66;4365496;32;32494;-87
2022/06/07 08:00:23;;;;;;;2.78;1.00;;;;;;;29.77;36.08;99596.69;4364348;32;33057;-86
2022/06/07 08:02:59;;;;;;;1.25;0.70;;;;;;;30.04;36.32;99586.81;4351138;32;33108;-85
2022/06/07 08:05:31;;;;;;;1.15;0.77;;;;;;;30.08;34.38;99579.94;4364062;32;33897;-86
2022/06/07 08:07:59;;;;;;;1.20;1.00;;;;;;;29.94;36.82;99593.66;4365749;32;33735;-85
2022/06/07 08:10:30;;;;;;;11.60;2.80;;;;;;;29.57;36.44;99587.47;4370166;32;34154;-86
2022/06/07 08:13:00;;;;;;;1.50;1.40;;;;;;;29.89;39.16;99586.09;4352783;32;33027;-85
2022/06/07 08:15:31;;;;;;;1.92;0.95;;;;;;;29.98;37.11;99576.75;4365518;32;33386;-87
2022/06/07 08:18:03;;;;;;;1.60;1.20;;;;;;;29.56;38.84;99585.81;4366277;32;33743;-87
2022/06/07 08:20:35;;;;;;;6.47;1.00;;;;;;;30.07;35.76;99572.84;4369293;32;33782;-86
2022/06/07 08:23:05;;;;;;;2.58;1.10;;;;;;;30.41;35.09;99573.06;4361691;32;32541;-86
2022/06/07 08:25:39;;;;;;;2.45;1.20;;;;;;;30.37;36.70;99577.25;4366462;32;34602;-86
2022/06/07 08:28:09;;;;;;;2.10;1.20;;;;;;;29.95;36.18;99579.00;4357066;32;33703;-87
2022/06/07 08:30:38;;;;;;;3.35;1.33;;;;;;;29.55;36.35;99576.81;4366576;32;33963;-86
2022/06/07 08:38:44;;;;;;;1.20;1.10;;;;;;;30.44;35.83;99573.53;4367450;32;33841;-86
2022/06/07 08:41:21;;;;;;;4.43;1.70;;;;;;;30.39;36.55;99575.19;4360902;32;33198;-87
2022/06/07 08:43:49;;;;;;;0.85;0.77;;;;;;;29.82;35.86;99575.16;4371650;32;33230;-87
2022/06/07 08:46:19;;;;;;;1.05;0.80;;;;;;;30.41;34.54;99568.47;4365627;32;33186;-87
2022/06/07 08:48:47;;;;;;;0.82;0.82;;;;;;;30.19;35.73;99564.97;4369024;32;33914;-86
2022/06/07 08:51:36;;;;;;;1.77;0.90;;;;;;;30.37;35.71;99571.78;4359589;32;32251;-86
2022/06/07 08:54:13;;;;;;;1.25;0.98;;;;;;;30.85;34.62;99559.06;4373072;32;32777;-87
2022/06/07 08:56:41;;;;;;;2.60;0.90;;;;;;;30.67;33.78;99556.88;4366474;32;34518;-86
2022/06/07 08:59:12;;;;;;;3.75;1.20;;;;;;;30.29;33.88;99565.47;4367648;32;33875;-86
2022/06/07 09:01:59;;;;;;;1.80;1.40;;;;;;;30.43;33.67;99560.06;4360743;32;33290;-86
2022/06/07 09:04:36;;;;;;;2.15;1.30;;;;;;;30.50;34.68;99556.38;4372871;32;33800;-87
2022/06/07 09:07:14;;;;;;;2.62;1.33;;;;;;;31.08;32.46;99556.81;4370861;32;33926;-86
2022/06/07 09:12:37;;;;;;;1.87;1.42;;;;;;;30.33;34.48;99560.44;4363175;32;32771;-86
2022/06/07 09:15:17;;;;;;;3.78;1.60;;;;;;;31.10;33.98;99552.00;4375240;32;34237;-86
2022/06/07 09:17:51;;;;;;;1.62;1.02;;;;;;;31.21;32.68;99553.28;4371436;32;33432;-86
2022/06/07 09:20:23;;;;;;;2.60;1.40;;;;;;;31.04;33.01;99547.38;4372640;32;34804;-86
2022/06/07 09:23:16;;;;;;;4.43;1.10;;;;;;;31.10;32.29;99548.44;4367939;32;34447;-87
2022/06/07 09:25:48;;;;;;;1.75;1.08;;;;;;;30.98;34.17;99550.91;4354855;32;34030;-86
2022/06/07 09:28:27;;;;;;;2.53;1.10;;;;;;;31.26;31.40;99545.31;4367702;32;34296;-87
2022/06/07 09:31:06;;;;;;;1.33;1.00;;;;;;;31.04;34.21;99541.06;4361790;32;33189;-86
2022/06/07 09:33:38;;;;;;;1.02;0.93;;;;;;;31.04;32.26;99531.00;4374576;32;34406;-87
2022/06/07 09:36:09;;;;;;;2.22;0.90;;;;;;;31.05;31.87;99531.84;4369657;32;32670;-86
2022/06/07 09:38:42;;;;;;;4.32;0.88;;;;;;;31.19;32.86;99533.53;4356088;32;34034;-87
2022/06/07 09:41:37;;;;;;;2.28;0.77;;;;;;;31.36;33.13;99531.31;4370157;32;33927;-87
2022/06/07 09:44:23;;;;;;;40.78;5.40;;;;;;;31.86;32.38;99524.44;4362746;32;34071;-87
2022/06/07 09:47:02;;;;;;;2.03;1.50;;;;;;;31.81;33.37;99521.47;4367864;32;32489;-87
2022/06/07 09:49:44;;;;;;;3.50;1.17;;;;;;;31.59;32.65;99522.72;4358819;32;33858;-87
2022/06/07 09:52:24;;;;;;;2.00;0.80;;;;;;;31.62;31.40;99525.03;4357466;32;34368;-87
2022/06/07 09:55:02;;;;;;;1.27;1.10;;;;;;;31.95;31.51;99518.72;4371263;32;33042;-86
2022/06/07 09:57:34;;;;;;;1.25;0.80;;;;;;;32.46;30.61;99507.91;4371035;32;32508;-86
2022/06/07 10:00:18;;;;;;;0.90;0.90;;;;;;;32.30;30.67;99514.66;4349578;32;34015;-87
2022/06/07 10:03:32;;;;;;;1.10;0.57;;;;;;;32.82;30.53;99511.97;4374789;32;32535;-87
2022/06/07 10:06:20;;;;;;;1.27;0.90;;;;;;;32.13;30.68;99514.28;4338915;33;32758;-86
2022/06/07 10:08:55;;;;;;;1.15;0.88;;;;;;;31.97;29.60;99501.09;4342209;33;32477;-87
2022/06/07 10:12:03;;;;;;;1.65;0.60;;;;;;;31.44;30.44;99509.28;4344231;32;34318;-86
2022/06/07 10:14:44;;;;;;;0.90;0.77;;;;;;;31.86;30.37;99502.59;4371656;32;34067;-87
2022/06/07 10:17:34;;;;;;;1.90;0.77;;;;;;;31.96;30.93;99493.13;4371993;32;34154;-87
2022/06/07 10:20:23;;;;;;;0.93;0.57;;;;;;;32.30;29.80;99501.00;4371420;32;34061;-87
2022/06/07 10:23:09;;;;;;;0.60;0.60;;;;;;;32.80;29.90;99493.03;4374920;32;32755;-87
2022/06/07 10:26:02;;;;;;;0.75;0.60;;;;;;;32.91;29.53;99490.69;4371575;32;34405;-86
2022/06/07 10:28:43;;;;;;;0.62;0.62;;;;;;;32.29;28.27;99477.47;4363230;32;34355;-87
2022/06/07 10:31:25;;;;;;;2.87;0.82;;;;;;;32.21;30.48;99483.16;4374785;32;32740;-87
2022/06/07 10:34:04;;;;;;;1.67;0.90;;;;;;;31.20;32.23;99491.63;4354625;32;34167;-87
2022/06/07 10:36:35;;;;;;;1.15;0.90;;;;;;;31.47;32.25;99480.72;4367986;32;32888;-87
2022/06/07 10:39:09;;;;;;;5.55;1.05;;;;;;;31.20;31.98;99485.31;4342314;32;33866;-87
2022/06/07 10:42:04;;;;;;;2.20;0.80;;;;;;;31.14;31.99;99475.22;4373829;32;33267;-87
2022/06/07 10:45:21;;;;;;;2.67;1.20;;;;;;;31.36;31.43;99474.03;4371384;32;33022;-86
2022/06/07 10:47:58;;;;;;;2.05;0.70;;;;;;;31.67;31.35;99470.66;4371570;32;33851;-87
2022/06/07 10:50:36;;;;;;;1.27;0.82;;;;;;;31.84;32.30;99477.38;4356768;32;33268;-87
2022/06/07 10:53:18;;;;;;;1.00;0.85;;;;;;;31.33;32.82;99475.28;4366200;32;34320;-87
2022/06/07 10:56:02;;;;;;;0.90;0.65;;;;;;;31.42;31.69;99465.00;4371314;32;33483;-87
2022/06/07 10:58:52;;;;;;;2.03;0.62;;;;;;;31.70;31.53;99458.47;4349690;32;32950;-88
2022/06/07 11:01:28;;;;;;;0.65;0.57;;;;;;;31.28;32.19;99450.50;4353730;32;33418;-87
2022/06/07 11:04:07;;;;;;;5.50;0.65;;;;;;;31.69;31.03;99449.44;4358522;32;32434;-87
2022/06/07 11:09:43;;;;;;;1.37;0.90;;;;;;;32.30;31.09;99431.88;4363118;32;33466;-87
2022/06/07 11:12:25;;;;;;;1.05;0.77;;;;;;;31.65;31.83;99445.44;4354371;32;34245;-87
2022/06/07 11:15:35;;;;;;;0.73;0.68;;;;;;;31.86;30.35;99442.53;4371095;32;33252;-87
2022/06/07 11:18:16;;;;;;;1.12;0.75;;;;;;;32.07;30.09;99432.38;4330786;33;33784;-87
2022/06/07 11:21:02;;;;;;;2.47;0.80;;;;;;;31.73;30.08;99430.75;4364646;32;33624;-87
2022/06/07 11:23:33;;;;;;;2.72;0.80;;;;;;;31.97;30.24;99427.34;4364677;32;34446;-88
2022/06/07 11:26:04;;;;;;;9.48;1.02;;;;;;;31.69;30.76;99424.88;4362010;32;33978;-87
2022/06/07 11:28:40;;;;;;;0.80;0.60;;;;;;;31.74;30.60;99422.34;4367875;32;34253;-87
2022/06/07 11:31:21;;;;;;;1.95;0.50;;;;;;;31.44;30.83;99426.59;4367746;32;34314;-87
2022/06/07 11:33:52;;;;;;;;;;;;;;;32.03;30.27;99426.50;4367227;32;34020;-87
2022/06/07 11:36:24;;;;;;;0.93;0.82;;;;;;;32.20;30.88;99417.84;4367612;32;33595;-87
2022/06/07 11:38:58;;;;;;;0.77;0.68;;;;;;;32.10;29.50;99412.84;4354759;32;33795;-87
2022/06/07 11:41:40;;;;;;;2.35;0.95;;;;;;;31.97;30.20;99402.78;4373058;32;33077;-87
2022/06/07 11:44:07;;;;;;;0.88;0.68;;;;;;;32.85;28.71;99408.47;4353247;32;33778;-87
2022/06/07 11:46:36;;;;;;;0.60;0.60;;;;;;;32.57;29.24;99399.78;4362528;32;33761;-87
2022/06/07 11:49:24;;;;;;;1.95;0.90;;;;;;;32.78;30.33;99402.19;4348822;32;33163;-86
2022/06/07 11:52:11;;;;;;;1.10;0.80;;;;;;;32.78;29.33;99395.88;4361376;32;34740;-86
2022/06/07 11:54:54;;;;;;;1.15;0.82;;;;;;;33.10;28.12;99389.34;4361081;32;36248;-87
2022/06/07 11:58:04;;;;;;;1.55;0.70;;;;;;;33.01;27.52;99384.37;4344530;32;33221;-87
2022/06/07 12:00:43;;;;;;;2.00;0.77;;;;;;;33.28;29.28;99387.72;4347006;32;32718;-87
2022/06/07 12:03:28;;;;;;;0.88;0.60;;;;;;;32.87;28.00;99392.66;4352744;32;33608;-88
2022/06/07 12:06:16;;;;;;;0.90;0.80;;;;;;;33.04;28.71;99381.19;4353948;32;33289;-87
2022/06/07 12:09:03;;;;;;;1.23;0.80;;;;;;;32.57;27.00;99380.66;4341070;32;34639;-86
2022/06/07 12:11:42;;;;;;;1.83;0.68;;;;;;;33.05;27.05;99377.41;4355692;32;33624;-87
2022/06/07 12:14:29;;;;;;;1.90;0.90;;;;;;;32.76;27.99;99382.44;4354258;32;34745;-87
2022/06/07 12:17:17;;;;;;;0.80;0.80;;;;;;;33.32;26.07;99370.63;4343462;32;34306;-87
2022/06/07 12:19:47;;;;;;;1.05;0.95;;;;;;;32.85;26.90;99364.72;4352410;32;32883;-87
2022/06/07 12:22:21;;;;;;;2.12;1.10;;;;;;;31.62;28.74;99372.22;4335327;32;32874;-87
2022/06/07 12:24:56;;;;;;;1.27;0.80;;;;;;;31.75;29.57;99369.41;4351082;32;32771;-87
2022/06/07 12:27:54;;;;;;;1.50;1.00;;;;;;;31.97;28.93;99367.28;4353093;32;32705;-88